createdAt,value
2019-05-28T00:00:20.659Z,15.70
2019-05-28T00:02:54.653Z,15.70
2019-05-28T00:05:28.217Z,15.70
2019-05-28T00:08:02.002Z,15.60
2019-05-28T00:10:35.631Z,15.60
2019-05-28T00:13:09.419Z,15.60
2019-05-28T00:15:43.841Z,15.50
2019-05-28T00:18:18.488Z,15.50
2019-05-28T00:20:52.130Z,15.50
2019-05-28T00:23:25.959Z,15.40
2019-05-28T00:25:59.739Z,15.40
2019-05-28T00:28:33.334Z,15.40
2019-05-28T00:31:06.904Z,15.40
2019-05-28T00:33:40.615Z,15.30
2019-05-28T00:36:15.098Z,15.30
2019-05-28T00:38:48.775Z,15.30
2019-05-28T00:41:22.367Z,15.30
2019-05-28T00:43:57.086Z,15.30
2019-05-28T00:46:30.665Z,15.30
2019-05-28T00:49:04.309Z,15.40
2019-05-28T00:51:37.895Z,15.40
2019-05-28T00:54:11.541Z,15.40
2019-05-28T00:56:45.234Z,15.30
2019-05-28T00:59:19.781Z,15.30
2019-05-28T01:01:53.558Z,15.20
2019-05-28T01:04:27.084Z,15.20
2019-05-28T01:07:00.757Z,15.30
2019-05-28T01:09:34.234Z,15.30
2019-05-28T01:12:07.829Z,15.30
2019-05-28T01:14:41.563Z,15.30
2019-05-28T01:17:15.887Z,15.30
2019-05-28T01:19:49.519Z,15.30
2019-05-28T01:22:24.007Z,15.40
2019-05-28T01:24:57.707Z,15.40
2019-05-28T01:27:32.013Z,15.50
2019-05-28T01:30:05.747Z,15.50
2019-05-28T01:32:39.339Z,15.50
2019-05-28T01:35:12.885Z,15.40
2019-05-28T01:37:46.407Z,15.40
2019-05-28T01:40:23.049Z,15.40
2019-05-28T01:42:53.514Z,15.40
2019-05-28T01:45:27.812Z,15.40
2019-05-28T01:48:01.647Z,15.40
2019-05-28T01:50:35.444Z,15.40
2019-05-28T01:53:09.057Z,15.50
2019-05-28T01:55:42.844Z,15.50
2019-05-28T01:58:16.471Z,15.50
2019-05-28T02:00:50.074Z,15.60
2019-05-28T02:03:23.767Z,15.60
2019-05-28T02:05:57.343Z,15.50
2019-05-28T02:08:30.963Z,15.50
2019-05-28T02:11:04.566Z,15.50
2019-05-28T02:13:38.176Z,15.40
2019-05-28T02:16:11.722Z,15.30
2019-05-28T02:18:45.279Z,15.30
2019-05-28T02:21:18.877Z,15.20
2019-05-28T02:23:52.449Z,15.10
2019-05-28T02:26:25.979Z,15.00
2019-05-28T02:29:00.482Z,14.90
2019-05-28T02:31:34.123Z,14.80
2019-05-28T02:34:07.822Z,14.80
2019-05-28T02:36:41.391Z,14.80
2019-05-28T02:39:14.959Z,14.70
2019-05-28T02:41:48.487Z,14.70
2019-05-28T02:44:22.055Z,14.70
2019-05-28T02:46:55.628Z,14.60
2019-05-28T02:49:29.218Z,14.50
2019-05-28T02:52:02.731Z,14.50
2019-05-28T02:54:36.295Z,14.40
2019-05-28T02:57:09.882Z,14.30
2019-05-28T02:59:43.632Z,14.30
2019-05-28T03:02:17.931Z,14.30
2019-05-28T03:04:51.619Z,14.30
2019-05-28T03:07:25.182Z,14.30
2019-05-28T03:09:58.749Z,14.30
2019-05-28T03:12:32.479Z,14.40
2019-05-28T03:15:07.035Z,14.40
2019-05-28T03:17:40.906Z,14.40
2019-05-28T03:20:14.578Z,14.40
2019-05-28T03:22:48.166Z,14.20
2019-05-28T03:25:22.808Z,14.30
2019-05-28T03:27:56.599Z,14.20
2019-05-28T03:30:31.136Z,14.30
2019-05-28T03:33:05.568Z,14.30
2019-05-28T03:35:39.279Z,14.20
2019-05-28T03:38:13.096Z,14.20
2019-05-28T03:40:46.732Z,14.10
2019-05-28T03:43:20.281Z,14.10
2019-05-28T03:45:54.072Z,14.10
2019-05-28T03:48:27.708Z,14.20
2019-05-28T03:51:01.470Z,14.20
2019-05-28T03:53:35.008Z,14.10
2019-05-28T03:56:08.764Z,14.10
2019-05-28T03:58:42.413Z,14.20
2019-05-28T04:01:16.779Z,14.10
2019-05-28T04:03:50.377Z,14.10
2019-05-28T04:06:24.706Z,14.20
2019-05-28T04:08:58.463Z,14.20
2019-05-28T04:11:44.367Z,14.30
2019-05-28T04:14:05.671Z,14.30
2019-05-28T04:16:39.306Z,14.20
2019-05-28T04:19:12.915Z,14.20
2019-05-28T04:21:46.490Z,14.20
2019-05-28T04:24:20.062Z,14.20
2019-05-28T04:26:53.895Z,14.10
2019-05-28T04:29:27.777Z,14.10
2019-05-28T04:32:01.359Z,14.10
2019-05-28T04:34:34.936Z,14.10
2019-05-28T04:37:08.676Z,14.00
2019-05-28T04:39:42.252Z,14.10
2019-05-28T04:42:15.955Z,14.00
2019-05-28T04:44:49.605Z,14.00
2019-05-28T04:47:23.227Z,14.00
2019-05-28T04:49:57.563Z,13.80
2019-05-28T04:52:32.073Z,13.80
2019-05-28T04:55:05.847Z,13.80
2019-05-28T04:57:39.558Z,13.80
2019-05-28T05:00:13.335Z,13.80
2019-05-28T05:02:58.817Z,13.80
2019-05-28T05:05:21.452Z,13.60
2019-05-28T05:07:55.969Z,13.60
2019-05-28T05:10:29.642Z,13.60
2019-05-28T05:13:03.246Z,13.70
2019-05-28T05:15:36.865Z,13.70
2019-05-28T05:18:10.452Z,13.60
2019-05-28T05:20:44.668Z,13.60
2019-05-28T05:23:19.123Z,13.70
2019-05-28T05:25:52.939Z,13.70
2019-05-28T05:28:26.541Z,13.70
2019-05-28T05:31:00.351Z,13.70
2019-05-28T05:33:34.487Z,13.80
2019-05-28T05:36:09.245Z,13.90
2019-05-28T05:38:42.876Z,13.90
2019-05-28T05:41:16.624Z,13.90
2019-05-28T05:43:50.721Z,13.90
2019-05-28T05:46:24.454Z,13.90
2019-05-28T05:48:58.967Z,14.00
2019-05-28T05:51:32.575Z,14.20
2019-05-28T05:54:07.222Z,14.10
2019-05-28T05:56:40.845Z,14.10
2019-05-28T05:59:15.404Z,14.20
2019-05-28T06:01:49.783Z,14.30
2019-05-28T06:04:23.368Z,14.30
2019-05-28T06:06:57.105Z,14.30
2019-05-28T06:09:30.716Z,14.40
2019-05-28T06:12:04.916Z,14.40
2019-05-28T06:14:38.577Z,14.40
2019-05-28T06:17:12.363Z,14.40
2019-05-28T06:19:46.104Z,14.30
2019-05-28T06:22:19.768Z,14.40
2019-05-28T06:24:53.419Z,14.30
2019-05-28T06:27:27.741Z,14.30
2019-05-28T06:30:01.257Z,14.30
2019-05-28T06:32:36.080Z,14.30
2019-05-28T06:35:08.697Z,14.30
2019-05-28T06:37:42.263Z,14.30
2019-05-28T06:40:15.844Z,14.30
2019-05-28T06:42:49.674Z,14.40
2019-05-28T06:45:24.100Z,14.40
2019-05-28T06:47:57.935Z,14.40
2019-05-28T06:50:33.109Z,14.40
2019-05-28T06:53:07.538Z,14.40
2019-05-28T06:55:41.388Z,14.40
2019-05-28T06:58:15.078Z,14.40
2019-05-28T07:00:49.678Z,14.50
2019-05-28T07:03:23.397Z,14.50
2019-05-28T07:06:07.291Z,14.60
2019-05-28T07:08:31.446Z,14.30
2019-05-28T07:11:05.171Z,14.40
2019-05-28T07:13:39.585Z,14.40
2019-05-28T07:16:13.368Z,14.40
2019-05-28T07:18:47.776Z,14.50
2019-05-28T07:21:21.334Z,14.50
2019-05-28T07:23:55.884Z,14.60
2019-05-28T07:26:29.760Z,14.60
2019-05-28T07:29:03.415Z,14.70
2019-05-28T07:31:37.229Z,14.60
2019-05-28T07:34:10.826Z,14.70
2019-05-28T07:36:45.121Z,14.80
2019-05-28T07:39:18.648Z,14.80
2019-05-28T07:41:52.539Z,14.80
2019-05-28T07:44:26.350Z,14.70
2019-05-28T07:47:00.942Z,14.60
2019-05-28T07:49:34.640Z,14.60
2019-05-28T07:52:08.229Z,14.60
2019-05-28T07:54:41.776Z,14.50
2019-05-28T07:57:15.366Z,14.20
2019-05-28T07:59:49.200Z,14.20
2019-05-28T08:02:22.939Z,14.30
2019-05-28T08:04:56.697Z,14.00
2019-05-28T08:07:30.272Z,13.90
2019-05-28T08:10:04.611Z,14.10
2019-05-28T08:12:38.407Z,14.10
2019-05-28T08:15:12.265Z,14.20
2019-05-28T08:17:46.018Z,14.50
2019-05-28T08:20:19.718Z,14.60
2019-05-28T08:22:53.348Z,14.70
2019-05-28T08:25:45.350Z,14.80
2019-05-28T08:28:18.731Z,15.20
2019-05-28T08:30:35.129Z,15.50
2019-05-28T08:33:09.258Z,15.50
2019-05-28T08:35:42.649Z,15.60
2019-05-28T08:38:16.392Z,15.60
2019-05-28T08:40:50.126Z,15.90
2019-05-28T08:43:23.792Z,15.60
2019-05-28T08:45:57.363Z,15.60
2019-05-28T08:48:30.993Z,15.80
2019-05-28T08:51:04.740Z,16.00
2019-05-28T08:53:38.345Z,16.10
2019-05-28T08:56:12.333Z,16.10
2019-05-28T08:58:46.102Z,16.10
2019-05-28T09:01:19.717Z,16.20
2019-05-28T09:03:53.273Z,16.20
2019-05-28T09:06:27.620Z,16.30
2019-05-28T09:09:01.250Z,16.30
2019-05-28T09:11:35.017Z,16.20
2019-05-28T09:14:08.522Z,16.10
2019-05-28T09:16:43.227Z,16.30
2019-05-28T09:19:17.630Z,16.70
2019-05-28T09:21:51.384Z,16.60
2019-05-28T09:24:27.854Z,17.00
2019-05-28T09:27:00.208Z,17.30
2019-05-28T09:29:34.536Z,17.10
2019-05-28T09:32:09.009Z,17.10
2019-05-28T09:34:43.505Z,16.80
2019-05-28T09:37:17.309Z,16.80
2019-05-28T09:39:51.824Z,16.90
2019-05-28T09:42:25.578Z,16.90
2019-05-28T09:44:59.517Z,16.70
2019-05-28T09:47:33.109Z,16.40
2019-05-28T09:50:27.072Z,16.40
2019-05-28T09:52:53.465Z,16.40
2019-05-28T09:55:15.463Z,16.50
2019-05-28T09:57:48.904Z,16.70
2019-05-28T10:00:22.580Z,16.80
2019-05-28T10:02:57.059Z,17.10
2019-05-28T10:05:30.844Z,17.10
2019-05-28T10:08:04.386Z,17.20
2019-05-28T10:10:38.763Z,17.50
2019-05-28T10:13:13.364Z,17.60
2019-05-28T10:15:47.708Z,17.60
2019-05-28T10:18:21.344Z,17.70
2019-05-28T10:20:55.861Z,17.70
2019-05-28T10:23:29.629Z,17.90
2019-05-28T10:26:03.357Z,17.70
2019-05-28T10:28:37.183Z,17.70
2019-05-28T10:31:11.787Z,17.50
2019-05-28T10:33:45.513Z,17.50
2019-05-28T10:36:34.465Z,17.90
2019-05-28T10:38:52.999Z,18.20
2019-05-28T10:41:26.811Z,18.10
2019-05-28T10:44:00.607Z,18.00
2019-05-28T10:46:34.992Z,17.70
2019-05-28T10:49:09.591Z,17.60
2019-05-28T10:51:43.275Z,17.60
2019-05-28T10:54:17.588Z,17.50
2019-05-28T10:56:51.341Z,17.50
2019-05-28T10:59:25.829Z,17.60
2019-05-28T11:01:59.580Z,17.60
2019-05-28T11:04:33.254Z,17.70
2019-05-28T11:07:06.886Z,17.90
2019-05-28T11:09:40.744Z,18.00
2019-05-28T11:12:15.290Z,18.00
2019-05-28T11:14:48.973Z,17.90
2019-05-28T11:17:23.538Z,18.10
2019-05-28T11:19:57.951Z,18.20
2019-05-28T11:22:31.645Z,18.20
2019-05-28T11:25:05.229Z,18.30
2019-05-28T11:27:38.890Z,18.50
2019-05-28T11:30:12.645Z,18.60
2019-05-28T11:32:46.516Z,18.60
2019-05-28T11:35:19.843Z,18.90
2019-05-28T11:37:54.194Z,19.40
2019-05-28T11:40:30.160Z,19.60
2019-05-28T11:43:02.976Z,19.90
2019-05-28T11:45:36.811Z,20.10
2019-05-28T11:48:10.558Z,19.90
2019-05-28T11:50:44.231Z,19.90
2019-05-28T11:53:18.122Z,19.90
2019-05-28T11:55:51.874Z,20.00
2019-05-28T11:58:25.445Z,20.10
2019-05-28T12:00:59.551Z,19.70
2019-05-28T12:03:33.399Z,19.60
2019-05-28T12:06:07.088Z,19.70
2019-05-28T12:08:41.578Z,19.70
2019-05-28T12:11:15.345Z,19.60
2019-05-28T12:13:49.897Z,19.70
2019-05-28T12:16:23.631Z,19.60
2019-05-28T12:18:58.522Z,19.50
2019-05-28T12:21:31.663Z,19.50
2019-05-28T12:24:05.328Z,19.60
2019-05-28T12:26:38.965Z,19.80
2019-05-28T12:29:12.626Z,19.90
2019-05-28T12:31:46.341Z,19.70
2019-05-28T12:34:20.082Z,19.90
2019-05-28T12:36:53.704Z,20.10
2019-05-28T12:39:27.514Z,20.10
2019-05-28T12:42:06.119Z,19.80
2019-05-28T12:44:42.291Z,19.70
2019-05-28T12:47:09.165Z,20.00
2019-05-28T12:49:42.759Z,19.90
2019-05-28T12:52:16.344Z,19.90
2019-05-28T12:54:50.096Z,20.10
2019-05-28T12:57:23.852Z,20.20
2019-05-28T12:59:57.681Z,20.00
2019-05-28T13:02:31.294Z,20.10
2019-05-28T13:05:09.795Z,20.20
2019-05-28T13:07:44.237Z,20.60
2019-05-28T13:10:17.819Z,20.50
2019-05-28T13:12:52.277Z,21.00
2019-05-28T13:15:25.872Z,20.90
2019-05-28T13:17:59.480Z,20.60
2019-05-28T13:20:33.147Z,20.60
2019-05-28T13:23:07.134Z,20.80
2019-05-28T13:25:40.853Z,20.50
2019-05-28T13:28:15.267Z,20.60
2019-05-28T13:30:48.920Z,20.60
2019-05-28T13:33:22.593Z,20.70
2019-05-28T13:35:56.300Z,20.70
2019-05-28T13:38:29.892Z,20.70
2019-05-28T13:41:03.554Z,20.60
2019-05-28T13:43:37.219Z,20.50
2019-05-28T13:46:11.947Z,20.30
2019-05-28T13:48:45.687Z,20.20
2019-05-28T13:51:19.464Z,20.20
2019-05-28T13:53:53.356Z,19.90
2019-05-28T13:56:27.171Z,19.80
2019-05-28T13:59:00.838Z,19.60
2019-05-28T14:01:34.667Z,19.50
2019-05-28T14:04:08.358Z,19.20
2019-05-28T14:06:44.454Z,19.30
2019-05-28T14:09:16.447Z,19.30
2019-05-28T14:11:50.019Z,19.50
2019-05-28T14:14:23.818Z,19.50
2019-05-28T14:16:57.643Z,19.50
2019-05-28T14:19:31.328Z,19.60
2019-05-28T14:22:05.158Z,19.70
2019-05-28T14:24:39.760Z,19.80
2019-05-28T14:27:14.207Z,19.90
2019-05-28T14:29:48.704Z,19.80
2019-05-28T14:32:22.384Z,19.80
2019-05-28T14:34:56.114Z,19.80
2019-05-28T14:37:30.616Z,19.90
2019-05-28T14:40:04.375Z,19.90
2019-05-28T14:42:38.156Z,20.00
2019-05-28T14:45:11.720Z,19.90
2019-05-28T14:47:45.352Z,19.70
2019-05-28T14:50:19.158Z,19.70
2019-05-28T14:52:52.921Z,19.60
2019-05-28T14:55:26.664Z,19.60
2019-05-28T14:58:04.850Z,19.70
2019-05-28T15:00:34.155Z,19.90
2019-05-28T15:03:07.971Z,19.90
2019-05-28T15:05:41.700Z,19.80
2019-05-28T15:08:15.443Z,19.90
2019-05-28T15:10:49.026Z,20.00
2019-05-28T15:13:22.552Z,19.90
2019-05-28T15:15:56.147Z,19.80
2019-05-28T15:18:29.980Z,20.10
2019-05-28T15:21:04.393Z,20.30
2019-05-28T15:23:38.061Z,20.30
2019-05-28T15:26:11.877Z,20.50
2019-05-28T15:28:46.329Z,20.00
2019-05-28T15:31:20.766Z,19.80
2019-05-28T15:33:54.513Z,19.80
2019-05-28T15:36:28.896Z,20.00
2019-05-28T15:39:03.522Z,20.10
2019-05-28T15:41:37.228Z,20.10
2019-05-28T15:44:10.827Z,20.10
2019-05-28T15:46:44.447Z,20.10
2019-05-28T15:49:18.156Z,20.10
2019-05-28T15:52:06.719Z,19.90
2019-05-28T15:54:25.418Z,19.80
2019-05-28T15:56:59.100Z,19.70
2019-05-28T15:59:33.655Z,19.70
2019-05-28T16:02:07.942Z,19.70
2019-05-28T16:04:41.972Z,19.50
2019-05-28T16:07:15.796Z,19.30
2019-05-28T16:09:56.282Z,19.30
2019-05-28T16:12:23.262Z,19.20
2019-05-28T16:14:57.859Z,18.80
2019-05-28T16:17:32.319Z,18.70
2019-05-28T16:20:06.781Z,18.50
2019-05-28T16:22:40.666Z,18.50
2019-05-28T16:25:14.387Z,18.50
2019-05-28T16:27:48.158Z,18.50
2019-05-28T16:30:21.865Z,18.30
2019-05-28T16:32:56.154Z,18.20
2019-05-28T16:35:29.799Z,18.20
2019-05-28T16:38:03.410Z,18.40
2019-05-28T16:40:37.814Z,18.50
2019-05-28T16:43:11.436Z,18.30
2019-05-28T16:45:45.008Z,18.20
2019-05-28T16:48:19.398Z,18.40
2019-05-28T16:50:53.054Z,18.30
2019-05-28T16:53:26.860Z,18.40
2019-05-28T16:56:01.245Z,18.20
2019-05-28T16:58:35.017Z,18.20
2019-05-28T17:01:21.912Z,18.00
2019-05-28T17:03:43.261Z,18.00
2019-05-28T17:06:16.893Z,17.90
2019-05-28T17:08:50.498Z,17.90
2019-05-28T17:11:27.746Z,17.90
2019-05-28T17:13:58.442Z,17.80
2019-05-28T17:16:33.140Z,17.80
2019-05-28T17:19:06.957Z,17.80
2019-05-28T17:21:41.554Z,17.80
2019-05-28T17:24:15.323Z,17.80
2019-05-28T17:26:49.811Z,17.70
2019-05-28T17:29:23.519Z,17.60
2019-05-28T17:31:57.285Z,17.60
2019-05-28T17:34:30.830Z,17.60
2019-05-28T17:37:05.971Z,17.60
2019-05-28T17:39:40.485Z,17.70
2019-05-28T17:42:14.181Z,17.70
2019-05-28T17:44:48.007Z,17.60
2019-05-28T17:47:22.531Z,17.50
2019-05-28T17:49:56.222Z,17.50
2019-05-28T17:52:30.078Z,17.40
2019-05-28T17:55:04.708Z,17.50
2019-05-28T17:57:38.381Z,17.50
2019-05-28T18:00:11.952Z,17.60
2019-05-28T18:02:48.481Z,17.50
2019-05-28T18:05:19.368Z,17.40
2019-05-28T18:07:53.134Z,17.30
2019-05-28T18:10:27.514Z,17.20
2019-05-28T18:13:01.108Z,17.20
2019-05-28T18:15:35.466Z,17.40
2019-05-28T18:18:09.253Z,17.40
2019-05-28T18:20:42.928Z,17.40
2019-05-28T18:23:16.579Z,17.40
2019-05-28T18:25:50.835Z,17.30
2019-05-28T18:28:24.398Z,17.30
2019-05-28T18:30:58.042Z,17.20
2019-05-28T18:33:32.549Z,17.10
2019-05-28T18:36:06.252Z,17.00
2019-05-28T18:38:43.435Z,17.10
2019-05-28T18:41:21.726Z,17.10
2019-05-28T18:43:47.959Z,17.00
2019-05-28T18:46:21.593Z,16.90
2019-05-28T18:48:55.181Z,16.80
2019-05-28T18:51:28.999Z,16.80
2019-05-28T18:54:02.632Z,16.80
2019-05-28T18:56:36.240Z,16.80
2019-05-28T18:59:09.925Z,16.80
2019-05-28T19:01:44.236Z,16.60
2019-05-28T19:04:20.398Z,16.60
2019-05-28T19:06:52.350Z,16.60
2019-05-28T19:09:26.849Z,16.50
2019-05-28T19:12:00.616Z,16.50
2019-05-28T19:14:34.199Z,16.50
2019-05-28T19:17:08.012Z,16.40
2019-05-28T19:19:41.683Z,16.30
2019-05-28T19:22:16.271Z,16.20
2019-05-28T19:24:49.843Z,16.20
2019-05-28T19:27:23.383Z,16.20
2019-05-28T19:29:57.007Z,16.20
2019-05-28T19:32:30.796Z,16.10
2019-05-28T19:35:07.805Z,16.00
2019-05-28T19:37:38.141Z,16.00
2019-05-28T19:40:11.701Z,16.00
2019-05-28T19:42:45.547Z,15.90
2019-05-28T19:45:20.057Z,15.80
2019-05-28T19:47:54.564Z,15.80
2019-05-28T19:50:28.159Z,15.80
2019-05-28T19:53:02.697Z,15.70
2019-05-28T19:55:36.414Z,15.70
2019-05-28T19:58:10.962Z,15.60
2019-05-28T20:00:45.117Z,15.60
2019-05-28T20:03:18.805Z,15.60
2019-05-28T20:05:52.347Z,15.60
2019-05-28T20:08:26.653Z,15.60
2019-05-28T20:11:01.949Z,15.60
2019-05-28T20:13:35.618Z,15.60
2019-05-28T20:16:09.408Z,15.50
2019-05-28T20:18:43.045Z,15.40
2019-05-28T20:21:17.526Z,15.30
2019-05-28T20:23:52.632Z,15.30
2019-05-28T20:26:25.053Z,15.40
2019-05-28T20:29:08.400Z,15.30
2019-05-28T20:31:32.443Z,15.30
2019-05-28T20:34:07.123Z,15.30
2019-05-28T20:36:39.770Z,15.20
2019-05-28T20:39:13.636Z,15.20
2019-05-28T20:41:47.392Z,15.10
2019-05-28T20:44:21.003Z,15.10
2019-05-28T20:46:54.556Z,15.10
2019-05-28T20:49:28.140Z,15.00
2019-05-28T20:52:02.745Z,14.90
2019-05-28T20:54:35.359Z,14.90
2019-05-28T20:57:08.882Z,14.80
2019-05-28T20:59:42.476Z,14.90
2019-05-28T21:02:19.185Z,14.80
2019-05-28T21:04:50.782Z,14.80
2019-05-28T21:07:24.399Z,14.80
2019-05-28T21:09:58.547Z,14.80
2019-05-28T21:12:43.165Z,14.70
2019-05-28T21:15:07.956Z,14.80
2019-05-28T21:17:41.676Z,14.80
2019-05-28T21:20:16.274Z,14.70
2019-05-28T21:22:50.071Z,14.60
2019-05-28T21:25:23.831Z,14.60
2019-05-28T21:27:58.504Z,14.70
2019-05-28T21:30:31.840Z,14.70
2019-05-28T21:33:05.552Z,14.60
2019-05-28T21:35:39.126Z,14.60
2019-05-28T21:38:12.726Z,14.60
2019-05-28T21:40:46.305Z,14.60
2019-05-28T21:43:20.056Z,14.60
2019-05-28T21:45:53.973Z,14.60
2019-05-28T21:48:27.148Z,14.60
2019-05-28T21:51:00.858Z,14.50
2019-05-28T21:53:34.442Z,14.50
2019-05-28T21:56:07.936Z,14.40
2019-05-28T21:58:41.563Z,14.40
2019-05-28T22:01:16.998Z,14.30
2019-05-28T22:03:50.581Z,14.30
2019-05-28T22:06:24.386Z,14.30
2019-05-28T22:08:57.983Z,14.40
2019-05-28T22:11:31.711Z,14.40
2019-05-28T22:14:05.325Z,14.50
2019-05-28T22:16:38.924Z,14.40
2019-05-28T22:19:12.429Z,14.30
2019-05-28T22:21:45.971Z,14.20
2019-05-28T22:24:19.559Z,14.20
2019-05-28T22:26:54.047Z,14.10
2019-05-28T22:29:27.740Z,14.10
2019-05-28T22:32:01.314Z,14.10
2019-05-28T22:34:34.913Z,13.90
2019-05-28T22:37:08.753Z,13.90
2019-05-28T22:39:42.315Z,13.80
2019-05-28T22:42:16.120Z,13.70
2019-05-28T22:44:49.712Z,13.60
2019-05-28T22:47:23.359Z,13.60
2019-05-28T22:50:13.655Z,13.50
2019-05-28T22:52:30.522Z,13.50
2019-05-28T22:55:08.045Z,13.50
2019-05-28T22:57:40.667Z,13.40
2019-05-28T23:00:14.252Z,13.40
2019-05-28T23:02:47.891Z,13.40
2019-05-28T23:05:21.679Z,13.40
2019-05-28T23:07:55.310Z,13.40
2019-05-28T23:10:28.941Z,13.30
2019-05-28T23:13:03.039Z,13.30
2019-05-28T23:15:36.332Z,13.30
2019-05-28T23:18:11.000Z,13.40
2019-05-28T23:20:43.588Z,13.40
2019-05-28T23:23:17.164Z,13.40
2019-05-28T23:25:50.769Z,13.40
2019-05-28T23:28:25.389Z,13.40
2019-05-28T23:30:58.970Z,13.40
2019-05-28T23:33:32.568Z,13.40
2019-05-28T23:36:06.591Z,13.40
2019-05-28T23:38:39.692Z,13.30
2019-05-28T23:41:13.577Z,13.40
2019-05-28T23:43:59.344Z,13.40
2019-05-28T23:46:20.699Z,13.40
2019-05-28T23:48:54.455Z,13.40
2019-05-28T23:51:28.923Z,13.30
2019-05-28T23:54:02.536Z,13.20
2019-05-28T23:56:36.487Z,13.20
2019-05-28T23:59:10.217Z,13.20
